Weather observations for the past three days for
Walterboro Lowcountry Regional Airport
Imperial (Metric)
Date Time (edt) Wind (mph) Vis. (mi.) Weather Sky Cond. Temperature (ºF) Relative Humidity Wind Chill (°F) Heat Index (°F) Pressure Precipitation (in)
Air Dwpt 6 hour altimeter (in) sea level (mb) 1 hr 3 hr 6 hr
Max. Min.
10 15:15 S 3 10.00 Mostly Cloudy BKN060 86 59 40% 85 29.98 0.0
10 14:35 SW 8 10.00 Partly Cloudy SCT060 86 59 40% 85 29.99 0.0
10 14:15 Calm 10.00 Partly Cloudy SCT050 82.4 59 45% 82 30 0.0
10 13:55 NW 6 10.00 Partly Cloudy SCT050 84.2 59 43% 84 30 0.0
10 13:35 S 3 10.00 Partly Cloudy SCT050 82.4 59 45% 82 30.01 0.0
10 13:15 SW 7 10.00 Partly Cloudy SCT050 80.6 59 48% 81 30.01 0.0
10 12:55 NW 3 10.00 Fair CLR 82.4 59 45% 82 30.02 0.0
10 12:35 W 5 10.00 Fair CLR 80.6 59 48% 81 30.03 0.0
10 12:15 W 5 10.00 Fair CLR 80.6 60.8 51% 81 30.03 0.0
10 11:55 NW 3 10.00 Fair CLR 80.6 62.6 54% 82 30.03 0.0
10 11:35 NW 5 10.00 Fair CLR 78.8 60.8 54% 80 30.03 0.0
10 11:15 Calm 10.00 Fair CLR 77 62.6 61% 79 30.03 0.0
10 10:55 N 5 10.00 Fair CLR 77 60.8 57% 79 30.03 0.0
10 10:35 NW 6 10.00 Fair CLR 77 62.6 61% 79 30.02 0.0
10 10:15 NW 6 10.00 Fair CLR 75.2 62.6 65% 77 30.02 0.0
10 09:55 NW 6 10.00 Fair CLR 73.4 64.4 74% 30.02 0.0
10 09:35 W 6 10.00 Fair CLR 71.6 64.4 78% 30.02 0.0
10 09:15 W 6 10.00 Fair CLR 71.6 64.4 78% 30.02 0.0
10 08:55 W 8 10.00 Fair CLR 69.8 64.4 83% 30.02 0.0
10 08:35 W 5 10.00 Fair CLR 68 64.4 88% 30.02 0.0
10 08:15 SW 5 10.00 Fair CLR 68 64.4 88% 30.01 0.0
10 07:55 W 5 10.00 Fair CLR 66.2 64.4 94% 30.01 0.0
10 07:35 W 5 10.00 Fair CLR 64.4 64.4 100% 30.01 0.0
10 07:15 SW 5 10.00 Partly Cloudy SCT080 64.4 62.6 94% 30.01 0.0
10 06:55 Calm 7.00 Partly Cloudy SCT080 64.4 62.6 94% 30 0.0
10 06:35 W 3 10.00 Partly Cloudy SCT080 64.4 62.6 94% 29.99 0.0
10 06:15 SW 5 7.00 Partly Cloudy SCT080 64.4 62.6 94% 29.99 0.0
10 05:55 W 3 10.00 Partly Cloudy SCT080 64.4 62.6 94% 29.98 0.0
10 05:35 W 3 10.00 Partly Cloudy SCT080 64.4 62.6 94% 29.98 0.0
10 05:15 Calm 10.00 Fair CLR 64.4 62.6 94% 29.97 0.0
10 04:55 Calm 10.00 Partly Cloudy SCT100 SCT120 64.4 62.6 94% 29.96 0.0
10 04:35 Calm 10.00 Mostly Cloudy BKN090 64.4 62.6 94% 29.97 0.0
10 04:15 SW 3 10.00 Mostly Cloudy BKN090 64.4 62.6 94% 29.96 0.0
10 03:55 Calm 10.00 Partly Cloudy SCT100 SCT120 66.2 62.6 88% 29.94 0.0
10 03:35 Calm 10.00 Overcast OVC100 66.2 62.6 88% 29.95 0.0
10 03:15 SW 3 10.00 Light Rain OVC100 66.2 62.6 88% 29.95 0.0
10 02:55 SW 5 10.00 Overcast OVC100 66.2 62.6 88% 29.96 0.0
10 02:35 SW 3 10.00 Partly Cloudy SCT110 66.2 64.4 94% 29.96 0.0
10 02:15 SW 5 10.00 Partly Cloudy SCT120 66.2 64.4 94% 29.96 0.0
10 01:55 SW 3 10.00 Partly Cloudy SCT120 68 64.4 88% 29.96 0.0
10 01:35 SW 5 10.00 Mostly Cloudy BKN120 68 64.4 88% 29.96 0.0
10 01:15 SW 5 10.00 Partly Cloudy SCT120 68 64.4 88% 29.96 0.0
10 00:55 W 5 10.00 Fair CLR 68 64.4 88% 29.96 0.0
10 00:35 W 6 10.00 Fair CLR 68 64.4 88% 29.96 0.0
10 00:15 SW 5 10.00 Fair CLR 68 64.4 88% 29.95 0.0
09 23:55 SW 6 10.00 Fair CLR 68 64.4 88% 29.94 0.0
09 23:35 SW 6 10.00 Fair CLR 68 64.4 88% 29.95 0.0
09 23:15 SW 6 10.00 Fair CLR 68 64.4 88% 29.95 0.0
09 22:55 SW 6 10.00 Partly Cloudy SCT090 68 64.4 88% 29.95 0.0
09 22:35 SW 3 10.00 Partly Cloudy SCT090 68 64.4 88% 29.94 0.0
09 22:15 SW 5 10.00 Mostly Cloudy BKN090 69.8 64.4 83% 29.93 0.0
09 21:55 SW 5 10.00 Overcast OVC100 69.8 64.4 83% 29.93 0.0
09 21:35 SW 5 10.00 Overcast OVC110 69.8 64.4 83% 29.93 0.0
09 21:10 SW 7 10.00 Mostly Cloudy BKN120 71.6 64.4 78% 29.92 0.0
09 20:55 SW 6 10.00 Mostly Cloudy BKN110 71.6 64.4 78% 29.92 0.0
09 20:35 SW 6 10.00 Overcast OVC100 71.6 64.4 78% 29.91 0.0
09 20:15 SW 5 10.00 Overcast OVC100 71.6 64.4 78% 29.9 0.0
09 19:55 SW 5 10.00 Mostly Cloudy BKN110 73.4 64.4 74% 29.9 0.0
09 19:35 SW 6 10.00 Mostly Cloudy BKN120 73.4 64.4 74% 29.9 0.0
09 19:15 SW 8 10.00 Mostly Cloudy BKN120 73.4 64.4 74% 29.89 0.0
09 18:55 SW 7 10.00 Mostly Cloudy BKN120 75.2 64.4 69% 77 29.88 0.0
09 18:35 SW 6 10.00 Mostly Cloudy BKN120 75.2 64.4 69% 77 29.88 0.0
09 18:15 SW 7 10.00 Partly Cloudy SCT120 77 64.4 65% 79 29.88 0.0
09 17:55 SW 8 10.00 Partly Cloudy SCT031 77 62.6 61% 79 29.88 0.0
09 17:35 SW 8 10.00 Mostly Cloudy BKN031 BKN039 77 64.4 65% 79 29.88 0.0
09 17:15 SW 9 10.00 Partly Cloudy SCT050 77 62.6 61% 79 29.88 0.0
09 16:50 W 8 10.00 Partly Cloudy SCT050 77 62.6 61% 79 29.89 0.0
09 16:35 W 6 10.00 Partly Cloudy SCT048 SCT050 77 64.4 65% 79 29.88 0.0
09 16:15 SW 8 10.00 Overcast SCT048 OVC060 77 64.4 65% 79 29.89 0.0
09 15:55 W 7 10.00 Mostly Cloudy BKN065 77 62.6 61% 79 29.9 0.0
09 15:35 W 9 10.00 Overcast SCT033 SCT040 OVC050 77 62.6 61% 79 29.9 0.0
09 15:15 W 8 10.00 Overcast BKN033 BKN041 OVC055 77 64.4 65% 79 29.9 0.0
09 14:55 W 6 10.00 Overcast BKN033 OVC060 77 64.4 65% 79 29.91 0.0
09 14:35 SW 8 10.00 Overcast SCT037 BKN060 OVC070 78.8 62.6 58% 80 29.9 0.0
09 14:15 W 7 10.00 Mostly Cloudy SCT040 SCT050 BKN070 77 62.6 61% 79 29.91 0.0
09 13:35 S 9 10.00 Partly Cloudy SCT090 78.8 64.4 61% 81 29.9 0.0
09 13:15 SW 7 10.00 Overcast SCT027 SCT075 OVC090 77 64.4 65% 79 29.9 0.0
09 12:55 SW 8 10.00 Mostly Cloudy SCT027 BKN090 BKN110 77 64.4 65% 79 29.92 0.0
09 12:35 SW 10 10.00 Mostly Cloudy BKN090 BKN110 75.2 64.4 69% 77 29.94 0.0
09 12:15 SW 7 10.00 Overcast SCT070 OVC090 73.4 64.4 74% 29.93 0.0
09 11:55 S 7 10.00 Overcast SCT020 BKN070 OVC100 73.4 64.4 74% 29.93 0.0
09 11:35 SW 8 10.00 Overcast SCT015 BKN070 OVC080 71.6 64.4 78% 29.94 0.0
09 11:15 S 10 10.00 Overcast SCT013 BKN070 OVC110 73.4 64.4 74% 29.93 0.0
09 10:55 S 9 10.00 Overcast SCT013 BKN080 OVC110 71.6 64.4 78% 29.94 0.0
09 10:35 S 5 10.00 Mostly Cloudy BKN080 BKN110 69.8 64.4 83% 29.95 0.0
09 10:15 SW 5 10.00 Overcast OVC080 68 62.6 83% 29.96 0.0
09 09:55 Calm 10.00 Mostly Cloudy BKN080 BKN110 68 62.6 83% 29.94 0.0
09 09:15 SE 3 10.00 Overcast OVC080 64.4 62.6 94% 29.95 0.0
09 08:55 Calm 10.00 Overcast OVC090 64.4 60.8 88% 29.95 0.0
09 08:35 Calm 10.00 Overcast OVC090 62.6 60.8 94% 29.95 0.0
09 08:15 Calm 10.00 Overcast OVC100 62.6 60.8 94% 29.96 0.0
09 07:55 Calm 10.00 Overcast OVC100 62.6 60.8 94% 29.96 0.0
09 07:35 Calm 10.00 Partly Cloudy SCT100 60.8 59 94% 29.95 0.0
09 07:15 Calm 10.00 Partly Cloudy SCT110 60.8 59 94% 29.94 0.0
09 06:55 Calm 10.00 Fair CLR 59 59 100% 29.93 0.0
09 06:35 Calm 10.00 Fair CLR 59 57.2 94% 29.92 0.0
09 06:15 NE 3 10.00 Fair CLR 59 57.2 94% 29.9 0.0
09 05:35 E 3 10.00 Fair CLR 60.8 59 94% 29.92 0.0
09 05:15 Calm 10.00 Fair CLR 60.8 59 94% 29.93 0.0
09 04:55 Calm 10.00 Fair CLR 60.8 59 94% 29.93 0.0
09 04:35 Calm 10.00 Fair CLR 60.8 59 94% 29.92 0.0
09 04:15 Calm 10.00 Fair CLR 60.8 59 94% 29.92 0.0
09 03:55 E 5 10.00 Fair CLR 60.8 59 94% 29.93 0.0
09 03:35 Calm 10.00 Fair CLR 60.8 59 94% 29.94 0.0
09 03:15 Calm 10.00 Fair CLR 60.8 59 94% 29.93 0.0
09 02:55 Calm 10.00 Fair CLR 60.8 59 94% 29.94 0.0
09 02:35 E 3 10.00 Fair CLR 60.8 59 94% 29.94 0.0
09 02:15 E 3 10.00 Fair CLR 60.8 59 94% 29.95 0.0
09 01:55 NE 3 10.00 Fair CLR 62.6 59 88% 29.96 0.0
09 01:35 Calm 10.00 Fair CLR 62.6 59 88% 29.97 0.0
09 01:15 SE 6 10.00 Fair CLR 62.6 59 88% 29.96 0.0
09 00:55 NE 5 10.00 Partly Cloudy SCT085 62.6 59 88% 29.98 0.0
09 00:35 E 3 10.00 Partly Cloudy SCT085 62.6 59 88% 29.99 0.0
09 00:15 SE 6 10.00 Fair CLR 62.6 59 88% 30 0.0
08 23:55 Calm 10.00 Fair CLR 62.6 59 88% 30.01 0.0
08 23:35 E 3 10.00 Fair CLR 62.6 57.2 83% 30.01 0.0
08 23:15 Calm 10.00 Fair CLR 62.6 57.2 83% 30.01 0.0
08 22:55 SE 3 10.00 Partly Cloudy SCT120 62.6 57.2 83% 30.01 0.0
08 22:35 S 5 10.00 Partly Cloudy SCT120 64.4 57.2 78% 30.02 0.0
08 22:15 Calm 10.00 Fair CLR 64.4 57.2 78% 30.02 0.0
08 21:55 Calm 10.00 Fair CLR 64.4 55.4 73% 30.01 0.0
08 21:35 SE 6 10.00 Fair CLR 64.4 55.4 73% 30 0.0
08 21:15 SE 3 10.00 Fair CLR 64.4 55.4 73% 30.01 0.0
08 20:55 SE 5 10.00 Fair CLR 64.4 55.4 73% 30 0.0
08 20:35 SE 5 10.00 Fair CLR 64.4 55.4 73% 29.99 0.0
08 20:15 SE 3 10.00 Fair CLR 64.4 55.4 73% 29.99 0.0
08 19:55 SE 6 10.00 Fair CLR 66.2 55.4 68% 29.98 0.0
08 19:35 SE 7 10.00 Fair CLR 68 55.4 64% 29.98 0.0
08 19:15 SE 6 10.00 Fair CLR 68 55.4 64% 29.98 0.0
08 18:55 SE 6 10.00 Fair CLR 68 55.4 64% 29.98 0.0
08 18:30 S 8 10.00 Fair CLR 69.8 53.6 57% 29.98 0.0
08 18:15 SE 8 10.00 Fair CLR 69.8 53.6 57% 29.98 0.0
08 17:55 SE 7 10.00 Fair CLR 69.8 53.6 57% 29.97 0.0
08 17:35 SE 9 10.00 Partly Cloudy SCT055 71.6 53.6 53% 29.97 0.0
08 17:15 S 13 G 17 10.00 Partly Cloudy SCT055 71.6 53.6 53% 29.97 0.0
08 16:55 S 6 10.00 Fair CLR 77 51.8 42% 78 29.97 0.0
08 16:35 Calm 10.00 Fair CLR 75.2 50 41% 78 29.97 0.0
08 16:15 SE 6 10.00 Fair CLR 75.2 50 41% 78 29.97 0.0
08 15:55 SE 7 10.00 Fair CLR 75.2 50 41% 78 29.97 0.0
08 15:35 Calm 10.00 Fair CLR 73.4 50 44% 29.98 0.0
08 15:15 Calm 10.00 Fair CLR 73.4 50 44% 30 0.0
08 14:55 E 7 10.00 Fair CLR 73.4 50 44% 29.99 0.0
08 14:35 E 3 10.00 Fair CLR 73.4 50 44% 30.01 0.0
08 14:15 NE 7 10.00 Fair CLR 73.4 50 44% 30.01 0.0
08 13:55 Calm 10.00 Fair CLR 73.4 48.2 41% 30.02 0.0
08 13:35 E 5 10.00 Fair CLR 73.4 50 44% 30.03 0.0
08 13:15 Calm 10.00 Fair CLR 71.6 48.2 44% 30.03 0.0
08 12:55 NE 8 10.00 Fair CLR 71.6 48.2 44% 30.05 0.0
08 12:35 E 10 10.00 Fair CLR 71.6 48.2 44% 30.04 0.0
08 12:15 NE 9 10.00 Fair CLR 69.8 48.2 46% 30.05 0.0
08 11:55 E 8 10.00 Fair CLR 69.8 46.4 43% 30.06 0.0
08 11:35 NE 9 10.00 Fair CLR 69.8 48.2 46% 30.08 0.0
08 11:15 E 10 10.00 Fair CLR 69.8 48.2 46% 30.08 0.0
08 10:55 NE 10 10.00 Fair CLR 68 48.2 49% 30.07 0.0
08 10:35 NE 13 10.00 Fair CLR 68 50 53% 30.07 0.0
08 10:15 NE 12 10.00 Fair CLR 66.2 50 56% 30.07 0.0
08 09:50 NE 9 10.00 Fair CLR 64.4 51.8 64% 30.06 0.0
08 09:35 NE 12 10.00 Fair CLR 62.6 51.8 68% 30.06 0.0
08 09:15 NE 10 10.00 Fair CLR 62.6 53.6 73% 30.05 0.0
08 08:55 NE 8 10.00 Fair CLR 60.8 53.6 77% 30.05 0.0
08 08:35 NE 7 10.00 Fair CLR 59 55.4 88% 30.04 0.0
08 08:15 NE 5 10.00 Fair CLR 59 55.4 88% 30.04 0.0
08 07:55 NE 3 10.00 Fair CLR 59 55.4 88% 30.03 0.0
08 07:35 N 3 10.00 Fair CLR 59 55.4 88% 30.02 0.0
08 07:15 N 3 10.00 Fair CLR 59 55.4 88% 30.01 0.0
08 06:55 Calm 10.00 Fair CLR 57.2 55.4 94% 30 0.0
08 06:35 N 3 10.00 Fair CLR 57.2 55.4 94% 29.98 0.0
08 06:15 N 3 10.00 Fair CLR 59 55.4 88% 29.98 0.0
08 05:55 N 3 10.00 Fair CLR 59 55.4 88% 29.96 0.0
08 05:35 NE 5 10.00 Fair CLR 59 55.4 88% 29.96 0.0
08 05:15 NE 6 10.00 Fair CLR 60.8 55.4 83% 29.96 0.0
08 04:55 Calm 10.00 Fair CLR 60.8 57.2 88% 29.96 0.0
08 04:35 N 3 10.00 Fair CLR 60.8 59 94% 29.96 0.0
08 04:15 Calm 10.00 Fair CLR 60.8 57.2 88% 29.96 0.0
08 03:55 Calm 10.00 Partly Cloudy SCT045 60.8 59 94% 29.96 0.0
08 03:35 Calm 10.00 Partly Cloudy SCT045 62.6 59 88% 29.95 0.0
08 03:15 N 3 10.00 Partly Cloudy SCT043 62.6 59 88% 29.95 0.0
08 02:55 N 9 10.00 Mostly Cloudy SCT017 BKN043 64.4 60.8 88% 29.94 0.0
08 02:35 N 6 10.00 Overcast SCT019 OVC045 64.4 60.8 88% 29.94 0.0
08 02:15 NW 3 10.00 Overcast OVC045 66.2 62.6 88% 29.94 0.0
08 01:55 W 3 10.00 Overcast OVC043 66.2 62.6 88% 29.93 0.0
08 01:35 W 3 10.00 Overcast OVC039 68 62.6 83% 29.93 0.0
08 01:15 NW 5 10.00 Partly Cloudy SCT037 68 64.4 88% 29.93 0.0
08 00:55 NW 7 10.00 Fair CLR 68 64.4 88% 29.93 0.0
08 00:35 W 6 10.00 Fair CLR 68 68 100% 29.92 0.0
08 00:15 NW 6 10.00 Fair CLR 69.8 68 94% 29.91 0.0
07 23:55 NW 7 10.00 Fair CLR 69.8 68 94% 29.91 0.0
07 23:35 W 7 10.00 Fair CLR 69.8 68 94% 29.91 0.0
07 23:15 W 5 10.00 Fair CLR 69.8 68 94% 29.9 0.0
07 22:55 W 5 10.00 Fair CLR 69.8 68 94% 29.9 0.0
07 22:35 W 5 10.00 Fair CLR 69.8 69.8 100% 29.9 0.0
07 22:15 W 5 10.00 Fair CLR 69.8 69.8 100% 29.88 0.0
07 21:55 SW 5 10.00 Partly Cloudy SCT006 69.8 69.8 100% 29.87 0.0
07 21:35 SW 5 10.00 Partly Cloudy SCT006 69.8 69.8 100% 29.86 0.0
07 21:15 SW 5 10.00 Fair CLR 69.8 69.8 100% 29.86 0.0
07 20:55 SW 5 10.00 Fair CLR 69.8 69.8 100% 29.85 0.0
07 20:35 SW 5 10.00 Fair CLR 71.6 69.8 94% 29.84 0.0
07 20:15 SW 5 10.00 Partly Cloudy SCT048 71.6 69.8 94% 29.84 0.0
07 19:55 SW 6 10.00 Partly Cloudy SCT006 SCT040 SCT050 71.6 69.8 94% 29.83 0.0
07 19:35 SW 5 10.00 Mostly Cloudy SCT006 BKN042 BKN055 71.6 71.6 100% 29.83 0.0
07 19:15 W 6 10.00 Overcast BKN042 BKN048 OVC050 71.6 71.6 100% 29.84 0.0
07 18:55 W 7 5.00 Light Rain SCT009 BKN040 OVC050 71.6 71.6 100% 29.83 0.0
07 18:35 W 8 10.00 Light Drizzle SCT009 BKN026 OVC039 71.6 69.8 94% 29.83 0.0
07 18:15 W 8 G 16 10.00 Light Drizzle OVC028 71.6 69.8 94% 29.83 0.0
07 17:55 W 8 7.00 Light Rain SCT018 OVC027 73.4 69.8 89% 29.83 0.0
07 17:30 W 8 10.00 Overcast SCT015 OVC022 73.4 69.8 89% 29.83 0.0
07 17:15 SW 8 10.00 Overcast BKN014 BKN018 OVC024 73.4 69.8 89% 29.83 0.0
07 16:55 W 7 10.00 Mostly Cloudy SCT012 BKN030 73.4 69.8 89% 29.83 0.0
07 16:35 W 7 10.00 Overcast OVC035 73.4 69.8 89% 29.83 0.0
07 16:15 W 8 10.00 Overcast SCT008 BKN027 OVC035 71.6 68 88% 29.84 0.0
07 15:55 W 7 10.00 Light Rain BKN008 BKN032 OVC055 69.8 68 94% 29.85 0.0 0.07
07 15:35 SW 8 7.00 Thunderstorm Rain in Vicinity SCT008 BKN055 OVC065 69.8 69.8 100% 29.85 0.0 0.06
Date Time (edt) Wind (mph) Vis. (mi.) Weather Sky Cond. Air Dwpt Max. Min. Relative Humidity Wind Chill (°F) Heat Index (°F) altimeter (in) sea level (mb) 1 hr 3 hr 6 hr
6 hour
Temperature (ºF) Pressure Precipitation (in)